sensor_id;sensor_type;location;lat;lon;timestamp;P1;durP1;ratioP1;P2;durP2;ratioP2
17890;SDS011;9071;48.220;14.480;2022-07-11T00:01:19;4.50;;;0.90;;
17890;SDS011;9071;48.220;14.480;2022-07-11T00:06:22;1.97;;;0.93;;
17890;SDS011;9071;48.220;14.480;2022-07-11T00:11:25;1.33;;;0.90;;
17890;SDS011;9071;48.220;14.480;2022-07-11T00:16:27;2.90;;;1.10;;
17890;SDS011;9071;48.220;14.480;2022-07-11T00:21:29;3.00;;;1.07;;
17890;SDS011;9071;48.220;14.480;2022-07-11T00:26:33;2.87;;;1.00;;
17890;SDS011;9071;48.220;14.480;2022-07-11T00:31:35;4.00;;;1.13;;
17890;SDS011;9071;48.220;14.480;2022-07-11T00:36:37;2.90;;;1.20;;
17890;SDS011;9071;48.220;14.480;2022-07-11T00:41:40;1.60;;;1.00;;
17890;SDS011;9071;48.220;14.480;2022-07-11T00:46:43;1.73;;;1.20;;
17890;SDS011;9071;48.220;14.480;2022-07-11T00:51:45;1.33;;;1.07;;
17890;SDS011;9071;48.220;14.480;2022-07-11T00:56:48;2.70;;;1.20;;
17890;SDS011;9071;48.220;14.480;2022-07-11T01:01:51;1.57;;;1.17;;
17890;SDS011;9071;48.220;14.480;2022-07-11T01:06:53;2.00;;;0.90;;
17890;SDS011;9071;48.220;14.480;2022-07-11T01:11:57;3.57;;;1.40;;
17890;SDS011;9071;48.220;14.480;2022-07-11T01:16:59;3.57;;;1.07;;
17890;SDS011;9071;48.220;14.480;2022-07-11T01:22:01;1.50;;;0.93;;
17890;SDS011;9071;48.220;14.480;2022-07-11T01:27:07;2.90;;;1.20;;
17890;SDS011;9071;48.220;14.480;2022-07-11T01:32:10;4.87;;;1.27;;
17890;SDS011;9071;48.220;14.480;2022-07-11T01:37:12;2.77;;;2.07;;
17890;SDS011;9071;48.220;14.480;2022-07-11T01:42:15;3.10;;;1.20;;
17890;SDS011;9071;48.220;14.480;2022-07-11T01:47:17;4.20;;;1.20;;
17890;SDS011;9071;48.220;14.480;2022-07-11T01:52:19;1.17;;;1.07;;
17890;SDS011;9071;48.220;14.480;2022-07-11T01:57:23;2.00;;;1.30;;
17890;SDS011;9071;48.220;14.480;2022-07-11T02:02:25;1.57;;;1.40;;
17890;SDS011;9071;48.220;14.480;2022-07-11T02:07:27;2.73;;;1.33;;
17890;SDS011;9071;48.220;14.480;2022-07-11T02:12:44;1.47;;;1.23;;
17890;SDS011;9071;48.220;14.480;2022-07-11T02:17:46;2.20;;;1.30;;
17890;SDS011;9071;48.220;14.480;2022-07-11T02:22:48;1.97;;;1.10;;
17890;SDS011;9071;48.220;14.480;2022-07-11T02:27:52;3.27;;;1.40;;
17890;SDS011;9071;48.220;14.480;2022-07-11T02:32:54;1.90;;;1.30;;
17890;SDS011;9071;48.220;14.480;2022-07-11T02:37:56;3.50;;;1.60;;
17890;SDS011;9071;48.220;14.480;2022-07-11T02:42:59;1.60;;;1.50;;
17890;SDS011;9071;48.220;14.480;2022-07-11T02:48:01;1.30;;;1.20;;
17890;SDS011;9071;48.220;14.480;2022-07-11T02:53:04;4.63;;;1.10;;
17890;SDS011;9071;48.220;14.480;2022-07-11T02:58:07;4.30;;;1.30;;
17890;SDS011;9071;48.220;14.480;2022-07-11T03:03:09;2.00;;;1.27;;
17890;SDS011;9071;48.220;14.480;2022-07-11T03:08:11;2.10;;;1.30;;
17890;SDS011;9071;48.220;14.480;2022-07-11T03:13:15;3.63;;;1.37;;
17890;SDS011;9071;48.220;14.480;2022-07-11T03:18:17;2.47;;;1.20;;
17890;SDS011;9071;48.220;14.480;2022-07-11T03:23:19;3.43;;;1.30;;
17890;SDS011;9071;48.220;14.480;2022-07-11T03:28:22;2.20;;;1.10;;
17890;SDS011;9071;48.220;14.480;2022-07-11T03:33:24;2.20;;;1.30;;
17890;SDS011;9071;48.220;14.480;2022-07-11T03:38:27;3.23;;;1.60;;
17890;SDS011;9071;48.220;14.480;2022-07-11T03:43:30;2.67;;;1.57;;
17890;SDS011;9071;48.220;14.480;2022-07-11T03:48:32;2.13;;;1.60;;
17890;SDS011;9071;48.220;14.480;2022-07-11T03:53:34;3.23;;;1.50;;
17890;SDS011;9071;48.220;14.480;2022-07-11T03:58:38;2.60;;;1.20;;
17890;SDS011;9071;48.220;14.480;2022-07-11T04:03:40;1.63;;;1.03;;
17890;SDS011;9071;48.220;14.480;2022-07-11T04:08:42;2.20;;;1.40;;
17890;SDS011;9071;48.220;14.480;2022-07-11T04:13:45;2.07;;;1.20;;
17890;SDS011;9071;48.220;14.480;2022-07-11T04:18:48;1.80;;;1.13;;
17890;SDS011;9071;48.220;14.480;2022-07-11T04:23:50;3.27;;;1.23;;
17890;SDS011;9071;48.220;14.480;2022-07-11T04:28:53;2.13;;;1.10;;
17890;SDS011;9071;48.220;14.480;2022-07-11T04:33:55;1.30;;;1.00;;
17890;SDS011;9071;48.220;14.480;2022-07-11T04:38:57;4.00;;;1.83;;
17890;SDS011;9071;48.220;14.480;2022-07-11T04:44:00;2.33;;;1.10;;
17890;SDS011;9071;48.220;14.480;2022-07-11T04:49:03;3.10;;;1.33;;
17890;SDS011;9071;48.220;14.480;2022-07-11T04:54:05;2.77;;;1.20;;
17890;SDS011;9071;48.220;14.480;2022-07-11T04:59:09;3.13;;;1.67;;
17890;SDS011;9071;48.220;14.480;2022-07-11T05:04:11;2.93;;;1.33;;
17890;SDS011;9071;48.220;14.480;2022-07-11T05:09:13;4.53;;;1.33;;
17890;SDS011;9071;48.220;14.480;2022-07-11T05:14:16;3.87;;;1.40;;
17890;SDS011;9071;48.220;14.480;2022-07-11T05:19:18;2.73;;;1.27;;
17890;SDS011;9071;48.220;14.480;2022-07-11T05:24:20;2.37;;;1.07;;
17890;SDS011;9071;48.220;14.480;2022-07-11T05:29:24;4.07;;;1.30;;
17890;SDS011;9071;48.220;14.480;2022-07-11T05:34:26;5.83;;;1.83;;
17890;SDS011;9071;48.220;14.480;2022-07-11T05:39:29;2.93;;;1.37;;
17890;SDS011;9071;48.220;14.480;2022-07-11T05:44:32;4.27;;;1.50;;
17890;SDS011;9071;48.220;14.480;2022-07-11T05:49:34;3.53;;;1.10;;
17890;SDS011;9071;48.220;14.480;2022-07-11T05:54:37;3.92;;;1.27;;
17890;SDS011;9071;48.220;14.480;2022-07-11T05:59:40;3.50;;;1.60;;
17890;SDS011;9071;48.220;14.480;2022-07-11T06:04:42;3.17;;;1.17;;
17890;SDS011;9071;48.220;14.480;2022-07-11T06:09:45;3.22;;;1.10;;
17890;SDS011;9071;48.220;14.480;2022-07-11T06:14:48;3.42;;;1.58;;
17890;SDS011;9071;48.220;14.480;2022-07-11T06:19:50;4.03;;;1.30;;
17890;SDS011;9071;48.220;14.480;2022-07-11T06:24:52;2.08;;;1.17;;
17890;SDS011;9071;48.220;14.480;2022-07-11T06:29:56;3.50;;;1.23;;
17890;SDS011;9071;48.220;14.480;2022-07-11T06:34:58;2.25;;;1.30;;
17890;SDS011;9071;48.220;14.480;2022-07-11T06:40:00;3.05;;;1.30;;
17890;SDS011;9071;48.220;14.480;2022-07-11T06:45:04;2.45;;;1.05;;
17890;SDS011;9071;48.220;14.480;2022-07-11T06:50:07;5.35;;;1.13;;
17890;SDS011;9071;48.220;14.480;2022-07-11T06:55:10;2.78;;;1.30;;
17890;SDS011;9071;48.220;14.480;2022-07-11T07:00:13;3.00;;;1.15;;
17890;SDS011;9071;48.220;14.480;2022-07-11T07:05:16;2.47;;;1.17;;
17890;SDS011;9071;48.220;14.480;2022-07-11T07:10:19;3.63;;;1.08;;
17890;SDS011;9071;48.220;14.480;2022-07-11T07:15:23;1.80;;;1.13;;
17890;SDS011;9071;48.220;14.480;2022-07-11T07:20:25;5.90;;;1.55;;
17890;SDS011;9071;48.220;14.480;2022-07-11T07:25:27;2.35;;;1.30;;
17890;SDS011;9071;48.220;14.480;2022-07-11T07:30:30;7.30;;;2.30;;
17890;SDS011;9071;48.220;14.480;2022-07-11T07:35:33;5.72;;;1.45;;
17890;SDS011;9071;48.220;14.480;2022-07-11T07:40:35;4.35;;;1.27;;
17890;SDS011;9071;48.220;14.480;2022-07-11T07:45:38;3.45;;;1.40;;
17890;SDS011;9071;48.220;14.480;2022-07-11T07:50:40;3.50;;;1.30;;
17890;SDS011;9071;48.220;14.480;2022-07-11T07:55:43;11.07;;;1.95;;
17890;SDS011;9071;48.220;14.480;2022-07-11T08:00:47;6.82;;;1.35;;
17890;SDS011;9071;48.220;14.480;2022-07-11T08:06:06;3.40;;;0.90;;
17890;SDS011;9071;48.220;14.480;2022-07-11T08:11:08;4.22;;;1.10;;
17890;SDS011;9071;48.220;14.480;2022-07-11T08:16:12;3.78;;;1.40;;
17890;SDS011;9071;48.220;14.480;2022-07-11T08:21:14;2.63;;;1.10;;
17890;SDS011;9071;48.220;14.480;2022-07-11T08:26:16;4.22;;;1.25;;
17890;SDS011;9071;48.220;14.480;2022-07-11T08:31:19;10.85;;;2.08;;
17890;SDS011;9071;48.220;14.480;2022-07-11T08:36:21;6.18;;;1.30;;
17890;SDS011;9071;48.220;14.480;2022-07-11T08:41:24;3.00;;;1.15;;
17890;SDS011;9071;48.220;14.480;2022-07-11T08:46:27;3.42;;;1.27;;
17890;SDS011;9071;48.220;14.480;2022-07-11T08:51:30;4.50;;;1.00;;
17890;SDS011;9071;48.220;14.480;2022-07-11T08:56:32;2.38;;;1.10;;
17890;SDS011;9071;48.220;14.480;2022-07-11T09:01:36;2.45;;;1.17;;
17890;SDS011;9071;48.220;14.480;2022-07-11T09:06:44;4.30;;;1.10;;
17890;SDS011;9071;48.220;14.480;2022-07-11T09:11:50;4.80;;;1.35;;
17890;SDS011;9071;48.220;14.480;2022-07-11T09:16:55;2.83;;;1.20;;
17890;SDS011;9071;48.220;14.480;2022-07-11T09:22:00;3.25;;;1.00;;
17890;SDS011;9071;48.220;14.480;2022-07-11T09:27:21;3.75;;;1.45;;
17890;SDS011;9071;48.220;14.480;2022-07-11T09:32:25;3.47;;;1.30;;
17890;SDS011;9071;48.220;14.480;2022-07-11T09:37:40;2.72;;;1.58;;
17890;SDS011;9071;48.220;14.480;2022-07-11T09:42:46;3.30;;;1.30;;
17890;SDS011;9071;48.220;14.480;2022-07-11T09:47:54;1.60;;;1.02;;
17890;SDS011;9071;48.220;14.480;2022-07-11T09:52:58;2.33;;;0.90;;
17890;SDS011;9071;48.220;14.480;2022-07-11T09:58:04;4.43;;;1.10;;
17890;SDS011;9071;48.220;14.480;2022-07-11T10:03:08;6.80;;;1.20;;
17890;SDS011;9071;48.220;14.480;2022-07-11T10:08:12;4.03;;;1.08;;
17890;SDS011;9071;48.220;14.480;2022-07-11T10:13:14;3.38;;;1.38;;
17890;SDS011;9071;48.220;14.480;2022-07-11T10:18:25;2.42;;;1.33;;
17890;SDS011;9071;48.220;14.480;2022-07-11T10:23:35;5.78;;;1.35;;
17890;SDS011;9071;48.220;14.480;2022-07-11T10:28:43;2.88;;;1.10;;
17890;SDS011;9071;48.220;14.480;2022-07-11T10:34:01;3.55;;;1.27;;
17890;SDS011;9071;48.220;14.480;2022-07-11T10:39:15;3.65;;;1.30;;
17890;SDS011;9071;48.220;14.480;2022-07-11T10:44:18;4.72;;;1.38;;
17890;SDS011;9071;48.220;14.480;2022-07-11T10:49:24;2.63;;;1.30;;
17890;SDS011;9071;48.220;14.480;2022-07-11T10:54:42;7.22;;;1.20;;
17890;SDS011;9071;48.220;14.480;2022-07-11T10:59:56;5.68;;;1.10;;
17890;SDS011;9071;48.220;14.480;2022-07-11T11:05:01;2.83;;;1.05;;
17890;SDS011;9071;48.220;14.480;2022-07-11T11:10:04;1.45;;;1.00;;
17890;SDS011;9071;48.220;14.480;2022-07-11T11:20:35;2.63;;;0.98;;
17890;SDS011;9071;48.220;14.480;2022-07-11T11:25:37;3.15;;;1.02;;
17890;SDS011;9071;48.220;14.480;2022-07-11T11:30:39;6.55;;;1.35;;
17890;SDS011;9071;48.220;14.480;2022-07-11T11:36:00;1.70;;;0.85;;
17890;SDS011;9071;48.220;14.480;2022-07-11T11:41:03;2.45;;;1.10;;
17890;SDS011;9071;48.220;14.480;2022-07-11T11:46:06;1.08;;;0.93;;
17890;SDS011;9071;48.220;14.480;2022-07-11T11:51:10;4.95;;;1.20;;
17890;SDS011;9071;48.220;14.480;2022-07-11T11:56:17;2.08;;;0.65;;
17890;SDS011;9071;48.220;14.480;2022-07-11T12:01:24;2.05;;;0.95;;
17890;SDS011;9071;48.220;14.480;2022-07-11T12:06:29;4.72;;;0.70;;
17890;SDS011;9071;48.220;14.480;2022-07-11T12:11:32;2.75;;;0.60;;
17890;SDS011;9071;48.220;14.480;2022-07-11T12:16:38;1.65;;;1.00;;
17890;SDS011;9071;48.220;14.480;2022-07-11T12:21:44;1.83;;;0.70;;
17890;SDS011;9071;48.220;14.480;2022-07-11T12:26:47;4.80;;;0.80;;
17890;SDS011;9071;48.220;14.480;2022-07-11T12:31:51;0.77;;;0.55;;
17890;SDS011;9071;48.220;14.480;2022-07-11T12:37:02;1.45;;;0.80;;
17890;SDS011;9071;48.220;14.480;2022-07-11T12:42:20;1.65;;;0.75;;
17890;SDS011;9071;48.220;14.480;2022-07-11T12:47:24;1.85;;;0.70;;
17890;SDS011;9071;48.220;14.480;2022-07-11T12:52:36;2.05;;;0.70;;
17890;SDS011;9071;48.220;14.480;2022-07-11T12:57:39;1.48;;;0.50;;
17890;SDS011;9071;48.220;14.480;2022-07-11T13:02:42;0.95;;;0.60;;
17890;SDS011;9071;48.220;14.480;2022-07-11T13:07:51;0.85;;;0.50;;
17890;SDS011;9071;48.220;14.480;2022-07-11T13:13:10;3.17;;;0.77;;
17890;SDS011;9071;48.220;14.480;2022-07-11T13:18:12;1.33;;;0.40;;
17890;SDS011;9071;48.220;14.480;2022-07-11T13:23:16;1.05;;;0.52;;
17890;SDS011;9071;48.220;14.480;2022-07-11T13:28:18;2.10;;;0.60;;
17890;SDS011;9071;48.220;14.480;2022-07-11T13:33:21;1.20;;;0.63;;
17890;SDS011;9071;48.220;14.480;2022-07-11T13:38:24;1.27;;;0.70;;
17890;SDS011;9071;48.220;14.480;2022-07-11T13:43:26;2.50;;;0.60;;
17890;SDS011;9071;48.220;14.480;2022-07-11T13:48:29;0.93;;;0.60;;
17890;SDS011;9071;48.220;14.480;2022-07-11T13:53:33;1.38;;;0.73;;
17890;SDS011;9071;48.220;14.480;2022-07-11T13:58:35;2.53;;;0.80;;
17890;SDS011;9071;48.220;14.480;2022-07-11T14:03:37;0.93;;;0.60;;
17890;SDS011;9071;48.220;14.480;2022-07-11T14:08:41;1.00;;;0.68;;
17890;SDS011;9071;48.220;14.480;2022-07-11T14:13:43;0.77;;;0.77;;
17890;SDS011;9071;48.220;14.480;2022-07-11T14:18:45;11.77;;;7.57;;
17890;SDS011;9071;48.220;14.480;2022-07-11T14:23:49;11.77;;;5.43;;
17890;SDS011;9071;48.220;14.480;2022-07-11T14:28:51;1.67;;;0.90;;
17890;SDS011;9071;48.220;14.480;2022-07-11T14:33:53;1.50;;;0.70;;
17890;SDS011;9071;48.220;14.480;2022-07-11T14:38:58;1.90;;;0.70;;
17890;SDS011;9071;48.220;14.480;2022-07-11T14:44:00;1.00;;;0.63;;
17890;SDS011;9071;48.220;14.480;2022-07-11T14:49:03;3.33;;;0.80;;
17890;SDS011;9071;48.220;14.480;2022-07-11T14:54:07;2.17;;;0.70;;
17890;SDS011;9071;48.220;14.480;2022-07-11T14:59:09;3.17;;;0.85;;
17890;SDS011;9071;48.220;14.480;2022-07-11T15:04:11;2.85;;;0.80;;
17890;SDS011;9071;48.220;14.480;2022-07-11T15:09:14;0.82;;;0.60;;
17890;SDS011;9071;48.220;14.480;2022-07-11T15:14:34;3.38;;;0.90;;
17890;SDS011;9071;48.220;14.480;2022-07-11T15:19:36;2.90;;;1.45;;
17890;SDS011;9071;48.220;14.480;2022-07-11T15:24:41;1.95;;;0.93;;
17890;SDS011;9071;48.220;14.480;2022-07-11T15:29:43;1.50;;;0.88;;
17890;SDS011;9071;48.220;14.480;2022-07-11T15:34:46;1.50;;;0.80;;
17890;SDS011;9071;48.220;14.480;2022-07-11T15:39:49;1.08;;;0.98;;
17890;SDS011;9071;48.220;14.480;2022-07-11T15:44:51;0.77;;;0.70;;
17890;SDS011;9071;48.220;14.480;2022-07-11T15:49:53;3.40;;;0.75;;
17890;SDS011;9071;48.220;14.480;2022-07-11T15:54:57;4.15;;;0.70;;
17890;SDS011;9071;48.220;14.480;2022-07-11T15:59:59;1.95;;;0.75;;
17890;SDS011;9071;48.220;14.480;2022-07-11T16:05:03;0.85;;;0.77;;
17890;SDS011;9071;48.220;14.480;2022-07-11T16:10:08;3.35;;;1.20;;
17890;SDS011;9071;48.220;14.480;2022-07-11T16:15:11;0.82;;;0.75;;
17890;SDS011;9071;48.220;14.480;2022-07-11T16:20:13;3.47;;;0.90;;
17890;SDS011;9071;48.220;14.480;2022-07-11T16:25:17;3.65;;;0.82;;
17890;SDS011;9071;48.220;14.480;2022-07-11T16:30:19;1.15;;;0.80;;
17890;SDS011;9071;48.220;14.480;2022-07-11T16:35:21;0.82;;;0.80;;
17890;SDS011;9071;48.220;14.480;2022-07-11T16:40:24;0.88;;;0.70;;
17890;SDS011;9071;48.220;14.480;2022-07-11T16:45:44;1.52;;;0.90;;
17890;SDS011;9071;48.220;14.480;2022-07-11T16:50:48;1.65;;;0.80;;
17890;SDS011;9071;48.220;14.480;2022-07-11T16:55:52;1.02;;;0.82;;
17890;SDS011;9071;48.220;14.480;2022-07-11T17:00:55;1.15;;;0.88;;
17890;SDS011;9071;48.220;14.480;2022-07-11T17:05:57;0.75;;;0.70;;
17890;SDS011;9071;48.220;14.480;2022-07-11T17:11:01;1.63;;;0.60;;
17890;SDS011;9071;48.220;14.480;2022-07-11T17:16:05;1.98;;;0.65;;
17890;SDS011;9071;48.220;14.480;2022-07-11T17:21:07;0.77;;;0.60;;
17890;SDS011;9071;48.220;14.480;2022-07-11T17:26:11;0.60;;;0.60;;
17890;SDS011;9071;48.220;14.480;2022-07-11T17:31:13;2.20;;;1.08;;
17890;SDS011;9071;48.220;14.480;2022-07-11T17:36:15;1.77;;;0.60;;
17890;SDS011;9071;48.220;14.480;2022-07-11T17:41:18;0.50;;;0.50;;
17890;SDS011;9071;48.220;14.480;2022-07-11T17:46:20;0.60;;;0.60;;
17890;SDS011;9071;48.220;14.480;2022-07-11T17:51:22;0.60;;;0.60;;
17890;SDS011;9071;48.220;14.480;2022-07-11T17:56:26;1.65;;;0.70;;
17890;SDS011;9071;48.220;14.480;2022-07-11T18:01:28;1.58;;;0.80;;
17890;SDS011;9071;48.220;14.480;2022-07-11T18:06:31;1.23;;;0.80;;
17890;SDS011;9071;48.220;14.480;2022-07-11T18:11:35;1.45;;;0.90;;
17890;SDS011;9071;48.220;14.480;2022-07-11T18:16:37;1.88;;;0.80;;
17890;SDS011;9071;48.220;14.480;2022-07-11T18:21:39;2.40;;;0.82;;
17890;SDS011;9071;48.220;14.480;2022-07-11T18:26:43;2.40;;;1.00;;
17890;SDS011;9071;48.220;14.480;2022-07-11T18:31:45;0.98;;;0.90;;
17890;SDS011;9071;48.220;14.480;2022-07-11T18:36:47;2.22;;;0.93;;
17890;SDS011;9071;48.220;14.480;2022-07-11T18:41:50;1.00;;;0.90;;
17890;SDS011;9071;48.220;14.480;2022-07-11T18:46:52;1.42;;;1.08;;
17890;SDS011;9071;48.220;14.480;2022-07-11T18:51:55;0.88;;;0.88;;
17890;SDS011;9071;48.220;14.480;2022-07-11T18:57:00;2.47;;;1.10;;
17890;SDS011;9071;48.220;14.480;2022-07-11T19:02:03;1.63;;;1.10;;
17890;SDS011;9071;48.220;14.480;2022-07-11T19:07:05;1.50;;;1.25;;
17890;SDS011;9071;48.220;14.480;2022-07-11T19:12:09;1.50;;;1.40;;
17890;SDS011;9071;48.220;14.480;2022-07-11T19:17:11;2.25;;;1.40;;
17890;SDS011;9071;48.220;14.480;2022-07-11T19:22:13;1.40;;;1.30;;
17890;SDS011;9071;48.220;14.480;2022-07-11T19:27:17;3.40;;;1.75;;
17890;SDS011;9071;48.220;14.480;2022-07-11T19:32:19;3.03;;;1.63;;
17890;SDS011;9071;48.220;14.480;2022-07-11T19:37:21;2.03;;;1.30;;
17890;SDS011;9071;48.220;14.480;2022-07-11T19:42:24;2.13;;;1.38;;
17890;SDS011;9071;48.220;14.480;2022-07-11T19:47:28;2.45;;;1.35;;
17890;SDS011;9071;48.220;14.480;2022-07-11T19:52:30;1.60;;;1.50;;
17890;SDS011;9071;48.220;14.480;2022-07-11T19:57:34;2.70;;;1.30;;
17890;SDS011;9071;48.220;14.480;2022-07-11T20:02:36;1.42;;;1.27;;
17890;SDS011;9071;48.220;14.480;2022-07-11T20:07:38;1.50;;;1.40;;
17890;SDS011;9071;48.220;14.480;2022-07-11T20:12:42;1.75;;;1.35;;
17890;SDS011;9071;48.220;14.480;2022-07-11T20:17:44;5.15;;;1.48;;
17890;SDS011;9071;48.220;14.480;2022-07-11T20:22:46;1.60;;;1.40;;
17890;SDS011;9071;48.220;14.480;2022-07-11T20:27:50;2.87;;;1.43;;
17890;SDS011;9071;48.220;14.480;2022-07-11T20:32:53;3.93;;;1.70;;
17890;SDS011;9071;48.220;14.480;2022-07-11T20:37:55;3.77;;;3.20;;
17890;SDS011;9071;48.220;14.480;2022-07-11T20:42:58;2.03;;;1.50;;
17890;SDS011;9071;48.220;14.480;2022-07-11T20:48:00;2.03;;;1.53;;
17890;SDS011;9071;48.220;14.480;2022-07-11T20:53:02;2.80;;;1.80;;
17890;SDS011;9071;48.220;14.480;2022-07-11T20:58:06;1.80;;;1.70;;
17890;SDS011;9071;48.220;14.480;2022-07-11T21:03:09;1.75;;;1.65;;
17890;SDS011;9071;48.220;14.480;2022-07-11T21:08:11;1.70;;;1.60;;
17890;SDS011;9071;48.220;14.480;2022-07-11T21:13:14;1.73;;;1.60;;
17890;SDS011;9071;48.220;14.480;2022-07-11T21:18:16;1.60;;;1.48;;
17890;SDS011;9071;48.220;14.480;2022-07-11T21:23:19;5.33;;;1.90;;
17890;SDS011;9071;48.220;14.480;2022-07-11T21:28:22;2.35;;;1.60;;
17890;SDS011;9071;48.220;14.480;2022-07-11T21:33:24;1.90;;;1.80;;
17890;SDS011;9071;48.220;14.480;2022-07-11T21:38:26;3.57;;;1.90;;
17890;SDS011;9071;48.220;14.480;2022-07-11T21:43:30;2.80;;;1.80;;
17890;SDS011;9071;48.220;14.480;2022-07-11T21:48:32;1.98;;;1.80;;
17890;SDS011;9071;48.220;14.480;2022-07-11T21:53:34;2.93;;;1.90;;
17890;SDS011;9071;48.220;14.480;2022-07-11T21:58:37;2.25;;;2.00;;
17890;SDS011;9071;48.220;14.480;2022-07-11T22:03:39;3.23;;;2.00;;
17890;SDS011;9071;48.220;14.480;2022-07-11T22:08:41;3.63;;;2.20;;
17890;SDS011;9071;48.220;14.480;2022-07-11T22:13:45;3.15;;;1.98;;
17890;SDS011;9071;48.220;14.480;2022-07-11T22:18:47;4.00;;;2.00;;
17890;SDS011;9071;48.220;14.480;2022-07-11T22:23:49;3.57;;;2.10;;
17890;SDS011;9071;48.220;14.480;2022-07-11T22:28:52;3.10;;;2.33;;
17890;SDS011;9071;48.220;14.480;2022-07-11T22:33:54;4.00;;;2.27;;
17890;SDS011;9071;48.220;14.480;2022-07-11T22:38:56;2.63;;;2.43;;
17890;SDS011;9071;48.220;14.480;2022-07-11T22:44:00;2.97;;;2.37;;
17890;SDS011;9071;48.220;14.480;2022-07-11T22:49:02;3.80;;;2.80;;
17890;SDS011;9071;48.220;14.480;2022-07-11T22:54:04;3.50;;;2.40;;
17890;SDS011;9071;48.220;14.480;2022-07-11T22:59:07;4.03;;;2.33;;
17890;SDS011;9071;48.220;14.480;2022-07-11T23:04:10;3.30;;;2.20;;
17890;SDS011;9071;48.220;14.480;2022-07-11T23:09:12;2.50;;;2.30;;
17890;SDS011;9071;48.220;14.480;2022-07-11T23:14:15;3.00;;;2.50;;
17890;SDS011;9071;48.220;14.480;2022-07-11T23:19:17;4.37;;;2.67;;
17890;SDS011;9071;48.220;14.480;2022-07-11T23:24:19;4.87;;;2.80;;
17890;SDS011;9071;48.220;14.480;2022-07-11T23:29:23;2.53;;;2.33;;
17890;SDS011;9071;48.220;14.480;2022-07-11T23:34:25;2.87;;;2.50;;
17890;SDS011;9071;48.220;14.480;2022-07-11T23:39:27;3.70;;;3.10;;
17890;SDS011;9071;48.220;14.480;2022-07-11T23:44:30;3.27;;;2.87;;
17890;SDS011;9071;48.220;14.480;2022-07-11T23:49:32;3.70;;;2.67;;
17890;SDS011;9071;48.220;14.480;2022-07-11T23:54:34;3.60;;;2.97;;
17890;SDS011;9071;48.220;14.480;2022-07-11T23:59:38;3.47;;;2.83;;
